Terminal Aerodrome Forecast
Issued by NWS Louisville, KY

Home | Current Version | Previous Version | Text Only | Print | Product List | Glossary On
Versions: 1 2 3 4 5 6 7 8 9 10 11 12 13 14 15
000
FTUS43 KLMK 130500
TAFLEX
TAF
KLEX 130526Z 1306/1406 36004KT P6SM OVC015
     FM130900 34006KT P6SM VCSH OVC010
     FM131600 36009KT P6SM BKN025
     FM132100 01008KT P6SM SCT040
     FM140100 03005KT P6SM SKC=

USA.gov is the U.S. government's official web portal to all federal, state and local government web resources and services.